sensor_id;sensor_type;location;lat;lon;timestamp;P1;durP1;ratioP1;P2;durP2;ratioP2
30850;SDS011;17567;48.382;9.102;2022-07-24T00:02:45;10.33;;;9.43;;
30850;SDS011;17567;48.382;9.102;2022-07-24T00:07:46;12.23;;;11.10;;
30850;SDS011;17567;48.382;9.102;2022-07-24T00:18:26;11.70;;;10.60;;
30850;SDS011;17567;48.382;9.102;2022-07-24T00:23:27;10.33;;;9.33;;
30850;SDS011;17567;48.382;9.102;2022-07-24T00:28:28;12.63;;;10.00;;
30850;SDS011;17567;48.382;9.102;2022-07-24T00:33:29;13.80;;;12.40;;
30850;SDS011;17567;48.382;9.102;2022-07-24T00:38:30;11.13;;;10.13;;
30850;SDS011;17567;48.382;9.102;2022-07-24T00:43:32;10.57;;;9.57;;
30850;SDS011;17567;48.382;9.102;2022-07-24T00:48:33;11.40;;;10.30;;
30850;SDS011;17567;48.382;9.102;2022-07-24T00:53:34;12.13;;;10.90;;
30850;SDS011;17567;48.382;9.102;2022-07-24T00:58:35;12.27;;;10.97;;
30850;SDS011;17567;48.382;9.102;2022-07-24T01:03:36;11.00;;;9.90;;
30850;SDS011;17567;48.382;9.102;2022-07-24T01:08:37;12.83;;;11.60;;
30850;SDS011;17567;48.382;9.102;2022-07-24T01:13:39;13.33;;;11.17;;
30850;SDS011;17567;48.382;9.102;2022-07-24T01:18:40;11.93;;;10.30;;
30850;SDS011;17567;48.382;9.102;2022-07-24T01:23:41;12.57;;;11.30;;
30850;SDS011;17567;48.382;9.102;2022-07-24T01:28:42;12.97;;;11.77;;
30850;SDS011;17567;48.382;9.102;2022-07-24T01:33:43;11.37;;;10.10;;
30850;SDS011;17567;48.382;9.102;2022-07-24T01:38:43;10.93;;;9.70;;
30850;SDS011;17567;48.382;9.102;2022-07-24T01:43:44;11.77;;;10.57;;
30850;SDS011;17567;48.382;9.102;2022-07-24T01:48:44;11.80;;;10.70;;
30850;SDS011;17567;48.382;9.102;2022-07-24T01:53:45;9.93;;;9.03;;
30850;SDS011;17567;48.382;9.102;2022-07-24T01:58:46;9.77;;;8.97;;
30850;SDS011;17567;48.382;9.102;2022-07-24T02:03:46;12.63;;;10.97;;
30850;SDS011;17567;48.382;9.102;2022-07-24T02:08:48;11.90;;;10.53;;
30850;SDS011;17567;48.382;9.102;2022-07-24T02:13:49;11.00;;;10.10;;
30850;SDS011;17567;48.382;9.102;2022-07-24T02:18:49;11.40;;;10.23;;
30850;SDS011;17567;48.382;9.102;2022-07-24T02:23:50;11.00;;;9.00;;
30850;SDS011;17567;48.382;9.102;2022-07-24T02:28:51;10.33;;;9.43;;
30850;SDS011;17567;48.382;9.102;2022-07-24T02:33:51;15.60;;;12.53;;
30850;SDS011;17567;48.382;9.102;2022-07-24T02:38:52;13.50;;;12.10;;
30850;SDS011;17567;48.382;9.102;2022-07-24T02:43:53;16.23;;;13.00;;
30850;SDS011;17567;48.382;9.102;2022-07-24T02:48:53;13.57;;;12.10;;
30850;SDS011;17567;48.382;9.102;2022-07-24T02:53:54;12.23;;;11.00;;
30850;SDS011;17567;48.382;9.102;2022-07-24T02:58:54;11.30;;;10.23;;
30850;SDS011;17567;48.382;9.102;2022-07-24T03:03:55;12.13;;;9.67;;
30850;SDS011;17567;48.382;9.102;2022-07-24T03:08:56;13.10;;;10.77;;
30850;SDS011;17567;48.382;9.102;2022-07-24T03:13:56;10.40;;;8.87;;
30850;SDS011;17567;48.382;9.102;2022-07-24T03:18:57;14.90;;;11.47;;
30850;SDS011;17567;48.382;9.102;2022-07-24T03:23:58;11.83;;;10.73;;
30850;SDS011;17567;48.382;9.102;2022-07-24T03:28:58;11.93;;;10.73;;
30850;SDS011;17567;48.382;9.102;2022-07-24T03:33:59;13.40;;;8.87;;
30850;SDS011;17567;48.382;9.102;2022-07-24T03:39:00;10.37;;;9.47;;
30850;SDS011;17567;48.382;9.102;2022-07-24T03:44:01;12.87;;;10.97;;
30850;SDS011;17567;48.382;9.102;2022-07-24T03:49:02;16.10;;;11.43;;
30850;SDS011;17567;48.382;9.102;2022-07-24T03:54:02;14.73;;;11.97;;
30850;SDS011;17567;48.382;9.102;2022-07-24T03:59:03;15.73;;;12.43;;
30850;SDS011;17567;48.382;9.102;2022-07-24T04:04:04;20.80;;;12.80;;
30850;SDS011;17567;48.382;9.102;2022-07-24T04:09:05;18.03;;;13.47;;
30850;SDS011;17567;48.382;9.102;2022-07-24T04:14:05;14.03;;;11.87;;
30850;SDS011;17567;48.382;9.102;2022-07-24T04:19:06;12.93;;;11.53;;
30850;SDS011;17567;48.382;9.102;2022-07-24T04:24:07;12.93;;;11.60;;
30850;SDS011;17567;48.382;9.102;2022-07-24T04:29:08;12.17;;;10.90;;
30850;SDS011;17567;48.382;9.102;2022-07-24T04:34:11;15.03;;;10.80;;
30850;SDS011;17567;48.382;9.102;2022-07-24T04:39:12;12.83;;;11.53;;
30850;SDS011;17567;48.382;9.102;2022-07-24T04:44:13;13.20;;;11.83;;
30850;SDS011;17567;48.382;9.102;2022-07-24T04:49:14;14.50;;;10.17;;
30850;SDS011;17567;48.382;9.102;2022-07-24T04:54:15;12.67;;;11.37;;
30850;SDS011;17567;48.382;9.102;2022-07-24T04:59:16;11.93;;;10.77;;
30850;SDS011;17567;48.382;9.102;2022-07-24T05:04:17;17.03;;;11.90;;
30850;SDS011;17567;48.382;9.102;2022-07-24T05:09:18;13.77;;;11.40;;
30850;SDS011;17567;48.382;9.102;2022-07-24T05:14:19;11.23;;;10.13;;
30850;SDS011;17567;48.382;9.102;2022-07-24T05:19:20;12.63;;;10.80;;
30850;SDS011;17567;48.382;9.102;2022-07-24T05:24:20;13.20;;;11.90;;
30850;SDS011;17567;48.382;9.102;2022-07-24T05:29:21;11.67;;;10.67;;
30850;SDS011;17567;48.382;9.102;2022-07-24T05:34:22;12.70;;;11.30;;
30850;SDS011;17567;48.382;9.102;2022-07-24T05:39:23;13.27;;;10.93;;
30850;SDS011;17567;48.382;9.102;2022-07-24T05:44:24;12.80;;;10.60;;
30850;SDS011;17567;48.382;9.102;2022-07-24T05:49:25;11.43;;;10.33;;
30850;SDS011;17567;48.382;9.102;2022-07-24T05:54:26;11.50;;;10.50;;
30850;SDS011;17567;48.382;9.102;2022-07-24T05:59:26;10.60;;;9.50;;
30850;SDS011;17567;48.382;9.102;2022-07-24T06:04:27;11.40;;;10.40;;
30850;SDS011;17567;48.382;9.102;2022-07-24T06:09:27;10.60;;;9.43;;
30850;SDS011;17567;48.382;9.102;2022-07-24T06:20:25;10.63;;;9.63;;
30850;SDS011;17567;48.382;9.102;2022-07-24T06:25:26;11.70;;;10.37;;
30850;SDS011;17567;48.382;9.102;2022-07-24T06:30:27;9.90;;;8.90;;
30850;SDS011;17567;48.382;9.102;2022-07-24T06:35:28;10.13;;;9.10;;
30850;SDS011;17567;48.382;9.102;2022-07-24T06:40:32;9.57;;;8.67;;
30850;SDS011;17567;48.382;9.102;2022-07-24T06:45:34;10.13;;;8.87;;
30850;SDS011;17567;48.382;9.102;2022-07-24T06:50:36;9.70;;;8.17;;
30850;SDS011;17567;48.382;9.102;2022-07-24T06:55:38;8.90;;;8.10;;
30850;SDS011;17567;48.382;9.102;2022-07-24T07:00:38;8.77;;;8.07;;
30850;SDS011;17567;48.382;9.102;2022-07-24T07:05:39;13.00;;;10.03;;
30850;SDS011;17567;48.382;9.102;2022-07-24T07:10:40;8.83;;;7.97;;
30850;SDS011;17567;48.382;9.102;2022-07-24T07:15:41;8.90;;;8.00;;
30850;SDS011;17567;48.382;9.102;2022-07-24T07:20:41;9.13;;;8.27;;
30850;SDS011;17567;48.382;9.102;2022-07-24T07:25:42;9.30;;;8.45;;
30850;SDS011;17567;48.382;9.102;2022-07-24T07:30:43;8.82;;;8.07;;
30850;SDS011;17567;48.382;9.102;2022-07-24T07:35:44;8.27;;;7.47;;
30850;SDS011;17567;48.382;9.102;2022-07-24T07:40:45;9.25;;;8.20;;
30850;SDS011;17567;48.382;9.102;2022-07-24T07:45:45;9.18;;;7.60;;
30850;SDS011;17567;48.382;9.102;2022-07-24T07:50:46;8.73;;;7.82;;
30850;SDS011;17567;48.382;9.102;2022-07-24T07:55:47;10.38;;;7.88;;
30850;SDS011;17567;48.382;9.102;2022-07-24T08:00:51;9.43;;;8.23;;
30850;SDS011;17567;48.382;9.102;2022-07-24T08:05:52;8.88;;;8.07;;
30850;SDS011;17567;48.382;9.102;2022-07-24T08:10:52;7.93;;;7.32;;
30850;SDS011;17567;48.382;9.102;2022-07-24T08:15:53;11.35;;;7.72;;
30850;SDS011;17567;48.382;9.102;2022-07-24T08:20:54;8.80;;;7.90;;
30850;SDS011;17567;48.382;9.102;2022-07-24T08:25:55;8.63;;;7.85;;
30850;SDS011;17567;48.382;9.102;2022-07-24T08:30:55;8.35;;;7.55;;
30850;SDS011;17567;48.382;9.102;2022-07-24T08:35:56;8.52;;;7.60;;
30850;SDS011;17567;48.382;9.102;2022-07-24T08:40:56;8.77;;;7.65;;
30850;SDS011;17567;48.382;9.102;2022-07-24T08:45:58;9.45;;;7.53;;
30850;SDS011;17567;48.382;9.102;2022-07-24T08:51:01;8.32;;;7.53;;
30850;SDS011;17567;48.382;9.102;2022-07-24T08:56:02;8.50;;;7.70;;
30850;SDS011;17567;48.382;9.102;2022-07-24T09:01:03;8.43;;;7.65;;
30850;SDS011;17567;48.382;9.102;2022-07-24T09:06:04;8.02;;;7.22;;
30850;SDS011;17567;48.382;9.102;2022-07-24T09:11:08;8.75;;;7.95;;
30850;SDS011;17567;48.382;9.102;2022-07-24T09:16:09;8.18;;;7.35;;
30850;SDS011;17567;48.382;9.102;2022-07-24T09:21:23;8.52;;;7.40;;
30850;SDS011;17567;48.382;9.102;2022-07-24T09:26:24;7.93;;;7.13;;
30850;SDS011;17567;48.382;9.102;2022-07-24T09:31:57;9.32;;;8.32;;
30850;SDS011;17567;48.382;9.102;2022-07-24T09:37:02;7.82;;;7.13;;
30850;SDS011;17567;48.382;9.102;2022-07-24T09:42:04;12.13;;;7.47;;
30850;SDS011;17567;48.382;9.102;2022-07-24T09:47:09;8.60;;;7.15;;
30850;SDS011;17567;48.382;9.102;2022-07-24T09:52:12;9.57;;;7.40;;
30850;SDS011;17567;48.382;9.102;2022-07-24T09:57:18;10.70;;;8.00;;
30850;SDS011;17567;48.382;9.102;2022-07-24T10:02:21;11.02;;;8.40;;
30850;SDS011;17567;48.382;9.102;2022-07-24T10:07:23;8.02;;;7.22;;
30850;SDS011;17567;48.382;9.102;2022-07-24T10:12:25;8.55;;;7.25;;
30850;SDS011;17567;48.382;9.102;2022-07-24T10:23:23;8.63;;;7.82;;
30850;SDS011;17567;48.382;9.102;2022-07-24T10:28:36;8.50;;;7.80;;
30850;SDS011;17567;48.382;9.102;2022-07-24T10:33:38;7.75;;;7.15;;
30850;SDS011;17567;48.382;9.102;2022-07-24T10:38:40;8.13;;;7.35;;
30850;SDS011;17567;48.382;9.102;2022-07-24T10:43:57;7.65;;;7.05;;
30850;SDS011;17567;48.382;9.102;2022-07-24T10:49:03;8.38;;;7.57;;
30850;SDS011;17567;48.382;9.102;2022-07-24T10:54:04;10.57;;;7.82;;
30850;SDS011;17567;48.382;9.102;2022-07-24T10:59:31;7.85;;;7.20;;
30850;SDS011;17567;48.382;9.102;2022-07-24T11:04:32;9.00;;;7.68;;
30850;SDS011;17567;48.382;9.102;2022-07-24T11:09:52;8.40;;;7.50;;
30850;SDS011;17567;48.382;9.102;2022-07-24T11:14:57;7.68;;;6.95;;
30850;SDS011;17567;48.382;9.102;2022-07-24T11:20:19;9.48;;;7.00;;
30850;SDS011;17567;48.382;9.102;2022-07-24T11:30:22;8.13;;;7.43;;
30850;SDS011;17567;48.382;9.102;2022-07-24T11:35:30;8.82;;;7.28;;
30850;SDS011;17567;48.382;9.102;2022-07-24T11:40:32;8.93;;;7.47;;
30850;SDS011;17567;48.382;9.102;2022-07-24T11:45:33;8.85;;;7.68;;
30850;SDS011;17567;48.382;9.102;2022-07-24T11:50:34;8.30;;;7.50;;
30850;SDS011;17567;48.382;9.102;2022-07-24T11:55:36;8.10;;;7.38;;
30850;SDS011;17567;48.382;9.102;2022-07-24T12:00:37;8.45;;;7.65;;
30850;SDS011;17567;48.382;9.102;2022-07-24T12:05:38;8.20;;;7.40;;
30850;SDS011;17567;48.382;9.102;2022-07-24T12:10:40;7.95;;;7.25;;
30850;SDS011;17567;48.382;9.102;2022-07-24T12:15:41;8.30;;;7.50;;
30850;SDS011;17567;48.382;9.102;2022-07-24T12:20:43;8.32;;;7.68;;
30850;SDS011;17567;48.382;9.102;2022-07-24T12:25:44;8.55;;;7.65;;
30850;SDS011;17567;48.382;9.102;2022-07-24T12:30:47;8.80;;;7.18;;
30850;SDS011;17567;48.382;9.102;2022-07-24T12:41:05;8.25;;;7.55;;
30850;SDS011;17567;48.382;9.102;2022-07-24T12:46:08;9.55;;;7.68;;
30850;SDS011;17567;48.382;9.102;2022-07-24T12:51:10;7.78;;;7.07;;
30850;SDS011;17567;48.382;9.102;2022-07-24T12:56:15;8.50;;;7.18;;
30850;SDS011;17567;48.382;9.102;2022-07-24T13:01:17;8.50;;;7.57;;
30850;SDS011;17567;48.382;9.102;2022-07-24T13:06:18;8.68;;;7.97;;
30850;SDS011;17567;48.382;9.102;2022-07-24T13:11:19;7.90;;;7.20;;
30850;SDS011;17567;48.382;9.102;2022-07-24T13:16:20;10.50;;;7.90;;
30850;SDS011;17567;48.382;9.102;2022-07-24T13:21:23;7.93;;;7.30;;
30850;SDS011;17567;48.382;9.102;2022-07-24T13:26:24;7.70;;;7.00;;
30850;SDS011;17567;48.382;9.102;2022-07-24T13:31:25;7.97;;;7.20;;
30850;SDS011;17567;48.382;9.102;2022-07-24T13:36:27;7.57;;;6.97;;
30850;SDS011;17567;48.382;9.102;2022-07-24T13:41:28;8.13;;;7.38;;
30850;SDS011;17567;48.382;9.102;2022-07-24T13:46:29;6.97;;;6.45;;
30850;SDS011;17567;48.382;9.102;2022-07-24T13:51:30;8.60;;;7.03;;
30850;SDS011;17567;48.382;9.102;2022-07-24T13:56:31;7.68;;;6.93;;
30850;SDS011;17567;48.382;9.102;2022-07-24T14:01:32;7.75;;;6.88;;
30850;SDS011;17567;48.382;9.102;2022-07-24T14:06:34;6.85;;;6.25;;
30850;SDS011;17567;48.382;9.102;2022-07-24T14:11:35;7.70;;;6.90;;
30850;SDS011;17567;48.382;9.102;2022-07-24T14:16:36;7.43;;;6.82;;
30850;SDS011;17567;48.382;9.102;2022-07-24T14:21:37;6.63;;;6.18;;
30850;SDS011;17567;48.382;9.102;2022-07-24T14:26:38;7.93;;;7.13;;
30850;SDS011;17567;48.382;9.102;2022-07-24T14:31:39;8.85;;;7.20;;
30850;SDS011;17567;48.382;9.102;2022-07-24T14:36:40;7.35;;;6.75;;
30850;SDS011;17567;48.382;9.102;2022-07-24T14:41:42;8.32;;;6.90;;
30850;SDS011;17567;48.382;9.102;2022-07-24T14:46:43;7.57;;;6.97;;
30850;SDS011;17567;48.382;9.102;2022-07-24T14:51:44;7.10;;;6.32;;
30850;SDS011;17567;48.382;9.102;2022-07-24T14:56:45;7.00;;;6.50;;
30850;SDS011;17567;48.382;9.102;2022-07-24T15:01:46;7.40;;;6.70;;
30850;SDS011;17567;48.382;9.102;2022-07-24T15:06:47;7.13;;;6.53;;
30850;SDS011;17567;48.382;9.102;2022-07-24T15:11:48;8.15;;;6.97;;
30850;SDS011;17567;48.382;9.102;2022-07-24T15:16:49;7.22;;;6.72;;
30850;SDS011;17567;48.382;9.102;2022-07-24T15:21:50;7.55;;;5.80;;
30850;SDS011;17567;48.382;9.102;2022-07-24T15:26:51;7.07;;;6.47;;
30850;SDS011;17567;48.382;9.102;2022-07-24T15:31:52;7.25;;;6.53;;
30850;SDS011;17567;48.382;9.102;2022-07-24T15:37:09;7.85;;;6.60;;
30850;SDS011;17567;48.382;9.102;2022-07-24T15:42:13;6.85;;;6.35;;
30850;SDS011;17567;48.382;9.102;2022-07-24T15:47:14;6.50;;;5.90;;
30850;SDS011;17567;48.382;9.102;2022-07-24T15:52:15;6.45;;;5.85;;
30850;SDS011;17567;48.382;9.102;2022-07-24T15:57:16;6.95;;;6.35;;
30850;SDS011;17567;48.382;9.102;2022-07-24T16:02:17;6.93;;;6.32;;
30850;SDS011;17567;48.382;9.102;2022-07-24T16:07:18;6.68;;;6.05;;
30850;SDS011;17567;48.382;9.102;2022-07-24T16:12:20;6.78;;;6.18;;
30850;SDS011;17567;48.382;9.102;2022-07-24T16:17:21;6.88;;;6.20;;
30850;SDS011;17567;48.382;9.102;2022-07-24T16:22:22;6.53;;;5.90;;
30850;SDS011;17567;48.382;9.102;2022-07-24T16:33:02;6.63;;;6.03;;
30850;SDS011;17567;48.382;9.102;2022-07-24T16:38:03;6.50;;;6.00;;
30850;SDS011;17567;48.382;9.102;2022-07-24T16:43:10;6.72;;;6.07;;
30850;SDS011;17567;48.382;9.102;2022-07-24T16:48:11;6.70;;;6.10;;
30850;SDS011;17567;48.382;9.102;2022-07-24T16:53:12;6.47;;;5.78;;
30850;SDS011;17567;48.382;9.102;2022-07-24T16:58:13;7.28;;;6.68;;
30850;SDS011;17567;48.382;9.102;2022-07-24T17:03:14;6.60;;;6.00;;
30850;SDS011;17567;48.382;9.102;2022-07-24T17:08:15;9.85;;;6.00;;
30850;SDS011;17567;48.382;9.102;2022-07-24T17:13:17;6.18;;;5.57;;
30850;SDS011;17567;48.382;9.102;2022-07-24T17:18:18;7.05;;;5.90;;
30850;SDS011;17567;48.382;9.102;2022-07-24T17:23:19;6.32;;;5.72;;
30850;SDS011;17567;48.382;9.102;2022-07-24T17:28:20;6.45;;;5.70;;
30850;SDS011;17567;48.382;9.102;2022-07-24T17:33:21;6.32;;;5.82;;
30850;SDS011;17567;48.382;9.102;2022-07-24T17:38:22;6.43;;;5.90;;
30850;SDS011;17567;48.382;9.102;2022-07-24T17:43:23;6.50;;;5.90;;
30850;SDS011;17567;48.382;9.102;2022-07-24T17:48:24;7.05;;;5.93;;
30850;SDS011;17567;48.382;9.102;2022-07-24T17:53:25;6.28;;;5.78;;
30850;SDS011;17567;48.382;9.102;2022-07-24T17:58:26;6.03;;;5.63;;
30850;SDS011;17567;48.382;9.102;2022-07-24T18:03:27;6.13;;;5.45;;
30850;SDS011;17567;48.382;9.102;2022-07-24T18:08:28;7.15;;;6.28;;
30850;SDS011;17567;48.382;9.102;2022-07-24T18:13:29;6.68;;;6.18;;
30850;SDS011;17567;48.382;9.102;2022-07-24T18:18:30;6.60;;;6.10;;
30850;SDS011;17567;48.382;9.102;2022-07-24T18:23:32;7.60;;;6.30;;
30850;SDS011;17567;48.382;9.102;2022-07-24T18:28:33;6.97;;;5.80;;
30850;SDS011;17567;48.382;9.102;2022-07-24T18:33:34;6.85;;;6.20;;
30850;SDS011;17567;48.382;9.102;2022-07-24T18:38:36;7.07;;;6.15;;
30850;SDS011;17567;48.382;9.102;2022-07-24T18:43:36;6.07;;;5.57;;
30850;SDS011;17567;48.382;9.102;2022-07-24T18:48:37;7.28;;;6.20;;
30850;SDS011;17567;48.382;9.102;2022-07-24T18:53:41;6.70;;;6.13;;
30850;SDS011;17567;48.382;9.102;2022-07-24T18:58:42;8.32;;;6.57;;
30850;SDS011;17567;48.382;9.102;2022-07-24T19:03:44;7.25;;;6.65;;
30850;SDS011;17567;48.382;9.102;2022-07-24T19:08:44;7.38;;;6.68;;
30850;SDS011;17567;48.382;9.102;2022-07-24T19:13:45;6.90;;;6.40;;
30850;SDS011;17567;48.382;9.102;2022-07-24T19:18:46;7.78;;;6.55;;
30850;SDS011;17567;48.382;9.102;2022-07-24T19:29:44;7.20;;;6.68;;
30850;SDS011;17567;48.382;9.102;2022-07-24T19:34:45;7.75;;;6.93;;
30850;SDS011;17567;48.382;9.102;2022-07-24T19:39:45;7.50;;;6.90;;
30850;SDS011;17567;48.382;9.102;2022-07-24T19:50:43;7.93;;;7.13;;
30850;SDS011;17567;48.382;9.102;2022-07-24T19:55:44;8.25;;;6.65;;
30850;SDS011;17567;48.382;9.102;2022-07-24T20:00:45;9.98;;;7.47;;
30850;SDS011;17567;48.382;9.102;2022-07-24T20:05:45;13.75;;;8.07;;
30850;SDS011;17567;48.382;9.102;2022-07-24T20:16:43;7.50;;;6.90;;
30850;SDS011;17567;48.382;9.102;2022-07-24T20:21:44;9.80;;;8.07;;
30850;SDS011;17567;48.382;9.102;2022-07-24T20:26:45;8.77;;;7.97;;
30850;SDS011;17567;48.382;9.102;2022-07-24T20:31:45;8.68;;;7.90;;
30850;SDS011;17567;48.382;9.102;2022-07-24T20:36:49;9.75;;;8.57;;
30850;SDS011;17567;48.382;9.102;2022-07-24T20:41:49;8.95;;;8.20;;
30850;SDS011;17567;48.382;9.102;2022-07-24T20:46:50;8.73;;;7.93;;
30850;SDS011;17567;48.382;9.102;2022-07-24T20:57:47;8.70;;;7.90;;
30850;SDS011;17567;48.382;9.102;2022-07-24T21:02:48;9.40;;;8.50;;
30850;SDS011;17567;48.382;9.102;2022-07-24T21:07:49;8.85;;;8.07;;
30850;SDS011;17567;48.382;9.102;2022-07-24T21:12:49;9.43;;;7.88;;
30850;SDS011;17567;48.382;9.102;2022-07-24T21:17:50;9.23;;;8.32;;
30850;SDS011;17567;48.382;9.102;2022-07-24T21:22:51;9.45;;;8.55;;
30850;SDS011;17567;48.382;9.102;2022-07-24T21:27:51;8.68;;;7.93;;
30850;SDS011;17567;48.382;9.102;2022-07-24T21:32:52;9.20;;;8.18;;
30850;SDS011;17567;48.382;9.102;2022-07-24T21:37:56;9.85;;;8.80;;
30850;SDS011;17567;48.382;9.102;2022-07-24T21:42:57;9.13;;;8.27;;
30850;SDS011;17567;48.382;9.102;2022-07-24T21:47:58;10.30;;;8.45;;
30850;SDS011;17567;48.382;9.102;2022-07-24T21:53:01;9.27;;;8.38;;
30850;SDS011;17567;48.382;9.102;2022-07-24T21:58:02;9.02;;;8.27;;
30850;SDS011;17567;48.382;9.102;2022-07-24T22:03:03;9.40;;;8.60;;
30850;SDS011;17567;48.382;9.102;2022-07-24T22:14:01;10.13;;;9.00;;
30850;SDS011;17567;48.382;9.102;2022-07-24T22:19:02;9.70;;;8.88;;
30850;SDS011;17567;48.382;9.102;2022-07-24T22:24:03;9.60;;;8.80;;
30850;SDS011;17567;48.382;9.102;2022-07-24T22:29:04;10.17;;;9.17;;
30850;SDS011;17567;48.382;9.102;2022-07-24T22:34:04;11.30;;;9.02;;
30850;SDS011;17567;48.382;9.102;2022-07-24T22:39:05;12.27;;;8.87;;
30850;SDS011;17567;48.382;9.102;2022-07-24T22:44:07;11.93;;;10.10;;
30850;SDS011;17567;48.382;9.102;2022-07-24T22:49:08;9.32;;;8.52;;
30850;SDS011;17567;48.382;9.102;2022-07-24T22:54:10;10.05;;;9.15;;
30850;SDS011;17567;48.382;9.102;2022-07-24T22:59:11;10.00;;;9.13;;
30850;SDS011;17567;48.382;9.102;2022-07-24T23:04:15;9.83;;;9.00;;
30850;SDS011;17567;48.382;9.102;2022-07-24T23:09:16;10.00;;;9.13;;
30850;SDS011;17567;48.382;9.102;2022-07-24T23:14:17;9.57;;;8.70;;
30850;SDS011;17567;48.382;9.102;2022-07-24T23:19:19;9.33;;;8.57;;
30850;SDS011;17567;48.382;9.102;2022-07-24T23:24:20;10.03;;;9.10;;
30850;SDS011;17567;48.382;9.102;2022-07-24T23:29:20;10.40;;;9.40;;
30850;SDS011;17567;48.382;9.102;2022-07-24T23:34:21;13.43;;;9.87;;
30850;SDS011;17567;48.382;9.102;2022-07-24T23:39:22;10.23;;;9.23;;
30850;SDS011;17567;48.382;9.102;2022-07-24T23:44:23;12.97;;;9.97;;
30850;SDS011;17567;48.382;9.102;2022-07-24T23:49:24;12.83;;;9.20;;
30850;SDS011;17567;48.382;9.102;2022-07-24T23:54:24;11.07;;;10.00;;
30850;SDS011;17567;48.382;9.102;2022-07-24T23:59:25;10.97;;;9.87;;
